createdAt,value
2024-02-21T00:02:25.840Z,3.33
2024-02-21T00:05:13.472Z,3.31
2024-02-21T00:08:01.296Z,3.02
2024-02-21T00:10:49.193Z,3.01
2024-02-21T00:13:36.977Z,2.94
2024-02-21T00:16:24.640Z,3.01
2024-02-21T00:19:12.441Z,3.05
2024-02-21T00:22:00.166Z,2.92
2024-02-21T00:24:47.838Z,2.96
2024-02-21T00:27:35.440Z,3.03
2024-02-21T00:30:23.099Z,3.18
2024-02-21T00:33:10.867Z,2.71
2024-02-21T00:35:58.587Z,2.96
2024-02-21T00:38:46.240Z,2.88
2024-02-21T00:41:33.908Z,2.75
2024-02-21T00:44:21.683Z,3.08
2024-02-21T00:47:09.369Z,3.05
2024-02-21T00:49:57.040Z,2.78
2024-02-21T00:52:44.814Z,2.72
2024-02-21T00:55:32.490Z,2.88
2024-02-21T00:58:20.170Z,2.69
2024-02-21T01:01:07.916Z,2.75
2024-02-21T01:03:55.673Z,2.78
2024-02-21T01:06:43.390Z,2.88
2024-02-21T01:09:31.034Z,2.70
2024-02-21T01:12:18.718Z,2.87
2024-02-21T01:15:06.366Z,2.67
2024-02-21T01:17:54.119Z,2.85
2024-02-21T01:20:41.812Z,2.86
2024-02-21T01:23:29.468Z,2.71
2024-02-21T01:26:17.095Z,2.57
2024-02-21T01:29:04.832Z,2.53
2024-02-21T01:31:52.536Z,2.34
2024-02-21T01:34:40.320Z,2.34
2024-02-21T01:37:28.058Z,2.48
2024-02-21T01:40:15.795Z,2.95
2024-02-21T01:43:03.500Z,2.84
2024-02-21T01:45:51.219Z,2.98
2024-02-21T01:48:38.906Z,2.66
2024-02-21T01:51:26.685Z,2.50
2024-02-21T01:54:14.364Z,2.27
2024-02-21T01:57:01.995Z,2.10
2024-02-21T01:59:49.822Z,2.37
2024-02-21T02:02:37.479Z,2.39
2024-02-21T02:05:25.103Z,2.78
2024-02-21T02:08:12.759Z,2.58
2024-02-21T02:11:00.571Z,2.76
2024-02-21T02:13:48.414Z,2.74
2024-02-21T02:16:36.096Z,3.00
2024-02-21T02:19:23.891Z,2.41
2024-02-21T02:22:11.615Z,2.42
2024-02-21T02:24:59.309Z,2.58
2024-02-21T02:27:49.352Z,2.61
2024-02-21T02:30:37.016Z,2.67
2024-02-21T02:33:24.906Z,2.55
2024-02-21T02:36:12.661Z,2.53
2024-02-21T02:39:00.326Z,2.47
2024-02-21T02:41:47.971Z,2.46
2024-02-21T02:44:35.646Z,2.53
2024-02-21T02:47:23.281Z,2.43
2024-02-21T02:50:10.910Z,2.09
2024-02-21T02:52:58.586Z,2.05
2024-02-21T02:55:47.341Z,2.11
2024-02-21T02:58:35.103Z,2.51
2024-02-21T03:01:22.818Z,2.72
2024-02-21T03:04:10.536Z,2.19
2024-02-21T03:06:58.196Z,2.29
2024-02-21T03:09:45.845Z,1.83
2024-02-21T03:12:33.507Z,2.19
2024-02-21T03:15:21.120Z,2.36
2024-02-21T03:18:08.891Z,2.34
2024-02-21T03:20:56.572Z,2.45
2024-02-21T03:23:44.211Z,2.44
2024-02-21T03:26:31.861Z,2.68
2024-02-21T03:29:19.458Z,2.52
2024-02-21T03:32:07.147Z,2.49
2024-02-21T03:34:54.840Z,2.56
2024-02-21T03:37:42.582Z,2.55
2024-02-21T03:40:30.319Z,2.47
2024-02-21T03:43:18.016Z,2.43
2024-02-21T03:46:05.664Z,2.45
2024-02-21T03:48:53.317Z,2.35
2024-02-21T03:51:40.934Z,2.29
2024-02-21T03:54:28.563Z,2.28
2024-02-21T03:57:16.587Z,2.25
2024-02-21T04:00:04.228Z,2.46
2024-02-21T04:02:51.837Z,2.38
2024-02-21T04:05:39.482Z,2.50
2024-02-21T04:08:27.109Z,2.55
2024-02-21T04:11:14.772Z,2.52
2024-02-21T04:14:02.497Z,2.41
2024-02-21T04:16:50.243Z,2.50
2024-02-21T04:19:37.950Z,2.59
2024-02-21T04:22:25.669Z,2.71
2024-02-21T04:25:13.371Z,2.57
2024-02-21T04:28:01.095Z,2.48
2024-02-21T04:30:48.719Z,2.43
2024-02-21T04:33:36.371Z,2.44
2024-02-21T04:36:23.996Z,2.70
2024-02-21T04:39:11.634Z,2.46
2024-02-21T04:41:59.254Z,2.47
2024-02-21T04:44:48.888Z,2.91
2024-02-21T04:47:36.540Z,2.91
2024-02-21T04:50:24.283Z,2.67
2024-02-21T04:53:11.996Z,2.84
2024-02-21T04:55:59.823Z,2.90
2024-02-21T04:58:47.540Z,2.91
2024-02-21T05:01:35.334Z,2.94
2024-02-21T05:04:23.173Z,3.07
2024-02-21T05:07:10.853Z,3.18
2024-02-21T05:09:58.562Z,2.98
2024-02-21T05:12:46.210Z,2.83
2024-02-21T05:15:33.859Z,2.80
2024-02-21T05:18:21.568Z,2.93
2024-02-21T05:21:09.256Z,2.97
2024-02-21T05:23:56.881Z,2.90
2024-02-21T05:26:44.515Z,2.88
2024-02-21T05:29:32.155Z,2.86
2024-02-21T05:32:19.807Z,2.84
2024-02-21T05:35:07.478Z,2.75
2024-02-21T05:37:57.249Z,2.62
2024-02-21T05:40:44.973Z,2.85
2024-02-21T05:43:32.794Z,2.60
2024-02-21T05:46:20.462Z,2.99
2024-02-21T05:49:08.236Z,2.91
2024-02-21T05:51:55.921Z,2.91
2024-02-21T05:54:47.440Z,2.67
2024-02-21T05:57:35.846Z,3.05
2024-02-21T06:00:23.489Z,3.05
2024-02-21T06:03:11.149Z,3.23
2024-02-21T06:06:00.830Z,3.07
2024-02-21T06:08:48.455Z,3.37
2024-02-21T06:11:36.233Z,2.86
2024-02-21T06:14:23.927Z,3.19
2024-02-21T06:17:11.598Z,3.05
2024-02-21T06:19:59.248Z,3.11
2024-02-21T06:22:46.928Z,2.95
2024-02-21T06:25:34.604Z,2.91
2024-02-21T06:28:22.304Z,3.09
2024-02-21T06:31:09.983Z,3.24
2024-02-21T06:33:57.724Z,3.35
2024-02-21T06:36:45.443Z,3.43
2024-02-21T06:39:33.110Z,3.60
2024-02-21T06:42:20.732Z,3.56
2024-02-21T06:45:08.377Z,3.95
2024-02-21T06:47:56.071Z,3.94
2024-02-21T06:50:43.750Z,4.18
2024-02-21T06:53:31.410Z,4.24
2024-02-21T06:56:19.034Z,3.83
2024-02-21T06:59:06.703Z,3.91
2024-02-21T07:01:54.425Z,4.04
2024-02-21T07:04:42.275Z,3.87
2024-02-21T07:07:30.225Z,3.87
2024-02-21T07:10:17.988Z,3.97
2024-02-21T07:13:05.646Z,3.99
2024-02-21T07:15:53.296Z,3.72
2024-02-21T07:18:40.951Z,3.62
2024-02-21T07:21:28.698Z,3.58
2024-02-21T07:24:16.418Z,3.48
2024-02-21T07:27:04.057Z,3.60
2024-02-21T07:29:51.704Z,3.48
2024-02-21T07:32:39.384Z,3.68
2024-02-21T07:35:27.086Z,3.24
2024-02-21T07:38:14.831Z,3.15
2024-02-21T07:41:00.867Z,3.07
2024-02-21T07:43:46.892Z,2.96
2024-02-21T07:46:34.589Z,3.16
2024-02-21T07:49:22.421Z,3.22
2024-02-21T07:52:12.096Z,3.29
2024-02-21T07:54:59.753Z,2.76
2024-02-21T07:57:47.388Z,2.71
2024-02-21T08:00:37.090Z,2.73
2024-02-21T08:03:24.845Z,2.62
2024-02-21T08:06:12.649Z,2.46
2024-02-21T08:09:00.346Z,2.43
2024-02-21T08:11:48.027Z,2.17
2024-02-21T08:14:35.689Z,2.55
2024-02-21T08:17:23.335Z,2.38
2024-02-21T08:20:10.982Z,2.27
2024-02-21T08:22:58.670Z,2.03
2024-02-21T08:25:46.374Z,1.98
2024-02-21T08:28:34.030Z,1.92
2024-02-21T08:31:21.796Z,2.22
2024-02-21T08:34:09.496Z,2.03
2024-02-21T08:36:57.138Z,2.12
2024-02-21T08:39:44.789Z,2.10
2024-02-21T08:42:34.732Z,2.28
2024-02-21T08:45:22.624Z,2.26
2024-02-21T08:48:10.369Z,2.47
2024-02-21T08:50:58.193Z,2.51
2024-02-21T08:53:45.919Z,2.42
2024-02-21T08:56:33.567Z,2.33
2024-02-21T08:59:21.246Z,2.25
2024-02-21T09:02:08.932Z,2.16
2024-02-21T09:04:56.814Z,2.05
2024-02-21T09:07:44.584Z,2.06
2024-02-21T09:10:32.280Z,2.19
2024-02-21T09:13:19.998Z,2.24
2024-02-21T09:16:09.683Z,2.86
2024-02-21T09:18:59.166Z,2.78
2024-02-21T09:21:46.873Z,3.43
2024-02-21T09:24:34.495Z,3.34
2024-02-21T09:27:22.183Z,3.14
2024-02-21T09:30:10.003Z,2.98
2024-02-21T09:32:57.870Z,3.26
2024-02-21T09:35:45.602Z,3.38
2024-02-21T09:38:33.319Z,3.45
2024-02-21T09:41:24.437Z,3.23
2024-02-21T09:44:13.952Z,3.25
2024-02-21T09:47:01.621Z,3.53
2024-02-21T09:49:49.481Z,3.45
2024-02-21T09:52:37.168Z,3.36
2024-02-21T09:55:24.846Z,3.45
2024-02-21T09:58:12.578Z,3.68
2024-02-21T10:01:04.504Z,4.71
2024-02-21T10:03:55.571Z,4.34
2024-02-21T10:06:44.323Z,4.86
2024-02-21T10:09:32.160Z,4.85
2024-02-21T10:12:19.838Z,4.80
2024-02-21T10:15:07.472Z,5.08
2024-02-21T10:17:55.169Z,4.93
2024-02-21T10:20:42.882Z,4.96
2024-02-21T10:23:32.547Z,5.65
2024-02-21T10:26:19.040Z,5.14
2024-02-21T10:29:05.351Z,5.02
2024-02-21T10:31:55.142Z,4.56
2024-02-21T10:34:43.178Z,4.15
2024-02-21T10:37:31.242Z,4.10
2024-02-21T10:40:20.894Z,4.17
2024-02-21T10:43:08.571Z,4.06
2024-02-21T10:45:56.217Z,3.90
2024-02-21T10:48:44.003Z,4.07
2024-02-21T10:51:31.753Z,3.94
2024-02-21T10:54:19.422Z,3.38
2024-02-21T10:57:07.048Z,3.46
2024-02-21T10:59:54.800Z,3.28
2024-02-21T11:02:42.608Z,3.92
2024-02-21T11:05:30.400Z,3.61
2024-02-21T11:08:18.082Z,3.74
2024-02-21T11:11:05.925Z,3.89
2024-02-21T11:13:53.682Z,3.55
2024-02-21T11:16:41.445Z,3.97
2024-02-21T11:19:29.364Z,3.73
2024-02-21T11:22:17.136Z,4.04
2024-02-21T11:25:04.752Z,4.34
2024-02-21T11:27:52.385Z,4.59
2024-02-21T11:30:40.013Z,4.64
2024-02-21T11:33:27.715Z,4.96
2024-02-21T11:36:15.386Z,4.46
2024-02-21T11:39:03.041Z,4.45
2024-02-21T11:41:50.663Z,3.99
2024-02-21T11:44:38.398Z,4.10
2024-02-21T11:47:28.066Z,3.52
2024-02-21T11:50:17.755Z,3.85
2024-02-21T11:53:07.208Z,3.52
2024-02-21T11:55:55.204Z,3.82
2024-02-21T11:58:43.030Z,3.59
2024-02-21T12:01:30.771Z,3.45
2024-02-21T12:04:18.554Z,3.62
2024-02-21T12:07:06.296Z,3.62
2024-02-21T12:09:53.934Z,4.04
2024-02-21T12:12:41.569Z,3.69
2024-02-21T12:15:29.198Z,3.92
2024-02-21T12:18:16.954Z,4.19
2024-02-21T12:21:04.676Z,3.84
2024-02-21T12:23:52.312Z,3.59
2024-02-21T12:26:39.965Z,3.58
2024-02-21T12:29:27.640Z,3.36
2024-02-21T12:32:15.390Z,3.03
2024-02-21T12:35:03.260Z,3.43
2024-02-21T12:37:50.992Z,3.10
2024-02-21T12:40:38.705Z,3.44
2024-02-21T12:43:26.432Z,3.61
2024-02-21T12:46:14.074Z,3.49
2024-02-21T12:49:01.744Z,3.68
2024-02-21T12:51:49.600Z,4.16
2024-02-21T12:54:37.286Z,4.13
2024-02-21T12:57:27.551Z,3.94
2024-02-21T13:00:15.865Z,3.57
2024-02-21T13:03:03.538Z,3.81
2024-02-21T13:05:51.226Z,4.14
2024-02-21T13:08:38.890Z,4.25
2024-02-21T13:11:26.624Z,4.64
2024-02-21T13:14:14.463Z,4.42
2024-02-21T13:17:02.191Z,4.48
2024-02-21T13:19:50.065Z,4.84
2024-02-21T13:22:37.875Z,4.67
2024-02-21T13:25:25.597Z,4.63
2024-02-21T13:28:13.245Z,4.36
2024-02-21T13:31:00.864Z,4.46
2024-02-21T13:33:48.575Z,4.48
2024-02-21T13:36:36.328Z,4.71
2024-02-21T13:39:24.051Z,4.37
2024-02-21T13:42:11.704Z,4.17
2024-02-21T13:44:59.378Z,4.35
2024-02-21T13:47:47.052Z,4.13
2024-02-21T13:50:36.711Z,4.06
2024-02-21T13:53:24.350Z,4.06
2024-02-21T13:56:12.008Z,4.24
2024-02-21T13:58:59.758Z,3.97
2024-02-21T14:01:47.570Z,3.96
2024-02-21T14:04:35.352Z,4.06
2024-02-21T14:07:23.063Z,4.05
2024-02-21T14:10:10.895Z,4.33
2024-02-21T14:12:58.705Z,4.08
2024-02-21T14:15:46.352Z,4.01
2024-02-21T14:18:34.189Z,4.11
2024-02-21T14:21:21.918Z,4.27
2024-02-21T14:24:09.547Z,4.22
2024-02-21T14:26:57.213Z,3.84
2024-02-21T14:29:44.880Z,8.00
2024-02-21T14:32:32.693Z,4.07
2024-02-21T14:35:20.475Z,3.57
2024-02-21T14:38:08.604Z,4.19
2024-02-21T14:40:56.395Z,3.96
2024-02-21T14:43:44.379Z,4.44
2024-02-21T14:46:34.360Z,4.29
2024-02-21T14:49:22.307Z,4.39
2024-02-21T14:52:10.070Z,4.18
2024-02-21T14:54:57.759Z,4.48
2024-02-21T14:57:45.388Z,4.05
2024-02-21T15:00:33.475Z,4.18
2024-02-21T15:03:21.228Z,3.96
2024-02-21T15:06:09.011Z,3.58
2024-02-21T15:08:56.682Z,3.47
2024-02-21T15:11:46.366Z,3.51
2024-02-21T15:14:34.071Z,3.78
2024-02-21T15:17:21.790Z,3.35
2024-02-21T15:20:09.490Z,3.19
2024-02-21T15:22:57.223Z,3.46
2024-02-21T15:25:45.046Z,3.07
2024-02-21T15:28:32.843Z,3.16
2024-02-21T15:31:20.591Z,3.31
2024-02-21T15:34:08.292Z,3.41
2024-02-21T15:36:56.252Z,3.11
2024-02-21T15:39:43.916Z,3.21
2024-02-21T15:42:31.652Z,3.47
2024-02-21T15:45:19.286Z,3.63
2024-02-21T15:48:06.971Z,3.47
2024-02-21T15:50:54.651Z,3.01
2024-02-21T15:53:42.318Z,3.15
2024-02-21T15:56:29.987Z,2.92
2024-02-21T15:59:17.713Z,2.99
2024-02-21T16:02:05.406Z,2.96
2024-02-21T16:04:53.294Z,3.30
2024-02-21T16:07:41.203Z,3.42
2024-02-21T16:10:28.961Z,3.42
2024-02-21T16:13:16.624Z,3.61
2024-02-21T16:16:04.373Z,3.33
2024-02-21T16:18:52.016Z,3.52
2024-02-21T16:21:39.689Z,3.71
2024-02-21T16:24:27.355Z,4.13
2024-02-21T16:27:17.025Z,4.04
2024-02-21T16:30:07.020Z,3.85
2024-02-21T16:32:56.251Z,3.53
2024-02-21T16:35:44.066Z,3.46
2024-02-21T16:38:31.804Z,3.28
2024-02-21T16:41:21.506Z,3.45
2024-02-21T16:44:09.237Z,3.21
2024-02-21T16:46:56.922Z,3.38
2024-02-21T16:49:44.658Z,3.35
2024-02-21T16:52:32.610Z,3.44
2024-02-21T16:55:20.341Z,3.28
2024-02-21T16:58:08.000Z,3.41
2024-02-21T17:00:57.751Z,3.42
2024-02-21T17:03:45.584Z,3.40
2024-02-21T17:06:33.444Z,3.64
2024-02-21T17:09:21.119Z,3.41
2024-02-21T17:12:08.887Z,3.48
2024-02-21T17:14:56.543Z,3.32
2024-02-21T17:17:44.280Z,3.13
2024-02-21T17:20:31.930Z,3.33
2024-02-21T17:23:19.669Z,3.38
2024-02-21T17:26:07.554Z,3.69
2024-02-21T17:28:55.403Z,3.35
2024-02-21T17:31:43.086Z,3.40
2024-02-21T17:34:32.809Z,3.39
2024-02-21T17:37:20.519Z,3.62
2024-02-21T17:40:10.145Z,3.65
2024-02-21T17:42:57.809Z,3.80
2024-02-21T17:45:45.428Z,3.59
2024-02-21T17:48:33.134Z,4.11
2024-02-21T17:51:20.964Z,3.72
2024-02-21T17:54:08.627Z,4.03
2024-02-21T17:56:56.346Z,3.91
2024-02-21T17:59:44.165Z,3.72
2024-02-21T18:02:31.936Z,3.84
2024-02-21T18:05:19.640Z,3.93
2024-02-21T18:08:07.404Z,3.96
2024-02-21T18:10:55.283Z,4.04
2024-02-21T18:13:43.051Z,4.44
2024-02-21T18:16:30.734Z,4.08
2024-02-21T18:19:18.459Z,4.70
2024-02-21T18:22:06.164Z,4.44
2024-02-21T18:24:53.791Z,4.53
2024-02-21T18:27:41.422Z,4.73
2024-02-21T18:30:29.040Z,4.92
2024-02-21T18:33:16.784Z,4.75
2024-02-21T18:36:04.474Z,4.57
2024-02-21T18:38:52.129Z,4.45
2024-02-21T18:41:39.800Z,4.69
2024-02-21T18:44:27.441Z,4.96
2024-02-21T18:47:15.181Z,4.71
2024-02-21T18:50:03.046Z,4.90
2024-02-21T18:52:50.808Z,5.19
2024-02-21T18:55:38.538Z,5.23
2024-02-21T18:58:26.243Z,5.09
2024-02-21T19:01:14.022Z,4.91
2024-02-21T19:04:01.788Z,4.94
2024-02-21T19:06:49.452Z,4.99
2024-02-21T19:09:37.103Z,4.90
2024-02-21T19:12:24.732Z,4.75
2024-02-21T19:15:12.390Z,4.68
2024-02-21T19:18:00.087Z,4.70
2024-02-21T19:20:47.816Z,4.25
2024-02-21T19:23:35.453Z,4.64
2024-02-21T19:26:23.115Z,4.34
2024-02-21T19:29:10.959Z,4.31
2024-02-21T19:31:58.765Z,4.43
2024-02-21T19:34:46.634Z,4.26
2024-02-21T19:37:34.488Z,4.47
2024-02-21T19:40:22.153Z,4.42
2024-02-21T19:43:09.790Z,4.22
2024-02-21T19:45:57.525Z,4.38
2024-02-21T19:48:45.339Z,4.48
2024-02-21T19:51:33.037Z,4.23
2024-02-21T19:54:24.965Z,4.18
2024-02-21T19:57:13.227Z,4.27
2024-02-21T20:00:00.953Z,4.16
2024-02-21T20:02:48.587Z,4.64
2024-02-21T20:05:36.332Z,4.50
2024-02-21T20:08:24.167Z,4.44
2024-02-21T20:11:12.184Z,4.36
2024-02-21T20:13:59.955Z,4.23
2024-02-21T20:16:47.635Z,4.39
2024-02-21T20:19:35.327Z,4.76
2024-02-21T20:22:23.069Z,4.79
2024-02-21T20:25:10.713Z,4.88
2024-02-21T20:27:58.389Z,4.75
2024-02-21T20:30:46.051Z,5.03
2024-02-21T20:33:33.786Z,4.67
2024-02-21T20:36:21.440Z,4.59
2024-02-21T20:39:09.098Z,4.57
2024-02-21T20:41:56.714Z,4.90
2024-02-21T20:44:44.360Z,4.91
2024-02-21T20:47:31.996Z,4.74
2024-02-21T20:50:19.726Z,4.88
2024-02-21T20:53:07.480Z,4.39
2024-02-21T20:55:55.252Z,4.84
2024-02-21T20:58:42.921Z,4.84
2024-02-21T21:01:30.676Z,4.98
2024-02-21T21:04:20.387Z,4.80
2024-02-21T21:07:08.088Z,5.10
2024-02-21T21:09:55.742Z,4.93
2024-02-21T21:12:43.440Z,5.24
2024-02-21T21:15:31.103Z,5.37
2024-02-21T21:18:18.813Z,5.14
2024-02-21T21:21:06.621Z,5.14
2024-02-21T21:23:54.289Z,5.42
2024-02-21T21:26:41.944Z,5.31
2024-02-21T21:29:29.584Z,5.01
2024-02-21T21:32:17.257Z,5.61
2024-02-21T21:35:04.973Z,5.62
2024-02-21T21:37:52.704Z,5.40
2024-02-21T21:40:40.391Z,5.49
2024-02-21T21:43:28.049Z,5.36
2024-02-21T21:46:15.697Z,5.60
2024-02-21T21:49:03.414Z,5.56
2024-02-21T21:51:51.073Z,5.09
2024-02-21T21:54:38.708Z,5.71
2024-02-21T21:57:26.335Z,5.59
2024-02-21T22:00:13.989Z,5.89
2024-02-21T22:03:01.685Z,5.93
2024-02-21T22:05:49.334Z,5.55
2024-02-21T22:08:36.960Z,5.79
2024-02-21T22:11:24.602Z,5.85
2024-02-21T22:14:12.488Z,5.73
2024-02-21T22:17:00.222Z,5.90
2024-02-21T22:19:47.961Z,6.10
2024-02-21T22:22:35.782Z,5.99
2024-02-21T22:25:23.578Z,5.66
2024-02-21T22:28:11.245Z,5.76
2024-02-21T22:30:58.934Z,5.89
2024-02-21T22:33:46.631Z,6.37
2024-02-21T22:36:34.308Z,5.78
2024-02-21T22:39:21.901Z,5.90
2024-02-21T22:42:11.564Z,6.05
2024-02-21T22:44:59.181Z,5.77
2024-02-21T22:47:46.859Z,5.96
2024-02-21T22:50:34.497Z,6.02
2024-02-21T22:53:24.165Z,5.81
2024-02-21T22:56:11.834Z,6.21
2024-02-21T22:58:59.632Z,5.92
2024-02-21T23:01:47.299Z,5.86
2024-02-21T23:04:35.080Z,6.18
2024-02-21T23:07:22.836Z,6.17
2024-02-21T23:10:10.482Z,6.00
2024-02-21T23:12:58.125Z,6.17
2024-02-21T23:15:46.864Z,6.61
2024-02-21T23:18:35.429Z,6.25
2024-02-21T23:21:23.096Z,6.29
2024-02-21T23:24:10.758Z,6.87
2024-02-21T23:26:58.408Z,6.61
2024-02-21T23:29:46.070Z,6.96
2024-02-21T23:32:33.751Z,7.20
2024-02-21T23:35:21.420Z,7.09
2024-02-21T23:38:09.180Z,7.37
2024-02-21T23:40:56.897Z,7.13
2024-02-21T23:43:44.603Z,7.33
2024-02-21T23:46:32.294Z,7.61
2024-02-21T23:49:20.030Z,7.34
2024-02-21T23:52:07.728Z,6.99
2024-02-21T23:54:55.407Z,7.11
2024-02-21T23:57:43.043Z,6.94
